Latest Weather Observations for Kingscote

IDS60801

Issued at 7:05 pm CDT Saturday 1 November 2014 (issued every 30 minutes, with the page automatically refreshed every 10 minutes)

About weather observations | Map of weather stations | Latest weather observations for SA | Other Formats
Station Details ID: 022841 Name: KINGSCOTE AERO Lat: -35.71 Lon: 137.52 Height: 6.23 m
Data from the previous 72 hours. | See also: Recent months at Kingscote
Date/Time
CDT
Temp
°C
App
Temp
°C
Dew
Point
Rel
Hum
%
Delta-T
°C
Wind Press
QNH
hPa
Press
MSL
hPa
Rain
since 9 am
mm
Dir
 
Spd
km/h
Gust
km/h
Spd
kts
Gust
kts
01/07:00pm 13.6 8.1 3.9 52 4.4 SSW 22 33 12 18 1021.3 1021.3 0.2
01/06:30pm 14.8 7.7 3.3 46 5.2 SSW 30 39 16 21 1020.8 1020.8 0.2
01/06:00pm 15.2 8.5 3.7 46 5.2 SSW 28 43 15 23 1020.4 1020.4 0.2
01/05:30pm 16.1 8.9 2.9 41 6.0 SSW 30 39 16 21 1020.0 1020.0 0.2
01/05:00pm 16.8 8.7 3.1 40 6.3 SSW 35 46 19 25 1019.7 1019.7 0.2
01/04:30pm 16.1 8.4 2.5 40 6.1 SSW 32 46 17 25 1019.3 1019.3 0.2
01/04:00pm 16.7 8.9 2.7 39 6.4 SSW 33 48 18 26 1018.9 1018.9 0.2
01/03:30pm 16.0 7.4 4.4 46 5.4 SSW 39 57 21 31 1018.9 1018.9 0.2
01/03:19pm 17.9 9.8 1.0 32 7.5 SW 33 52 18 28 1018.7 1018.7 0.2
01/03:00pm 15.9 7.6 2.0 39 6.2 SSW 35 48 19 26 1018.8 1018.8 0.2
01/02:30pm 16.9 9.0 2.5 38 6.5 SW 33 48 18 26 1018.9 1018.9 0.2
01/02:12pm 17.4 9.2 2.6 37 6.7 SSW 35 54 19 29 1018.7 1018.7 0.2
01/02:00pm 16.4 7.8 2.4 39 6.3 SSW 37 50 20 27 1018.6 1018.6 0.2
01/01:30pm 17.3 9.1 2.9 38 6.6 SSW 35 46 19 25 1018.4 1018.4 0.2
01/01:04pm 16.4 8.5 1.3 36 6.6 SW 32 50 17 27 1018.1 1018.1 0.2
01/01:00pm 17.1 8.8 1.9 36 6.8 SW 35 50 19 27 1018.1 1018.1 0.2
01/12:30pm 16.6 7.6 0.3 33 7.0 SSW 37 50 20 27 1017.8 1017.8 0.2
01/12:00pm 16.1 8.2 2.2 39 6.2 SW 33 44 18 24 1017.7 1017.7 0.2
01/11:30am 16.1 7.4 2.2 39 6.2 SW 37 56 20 30 1017.4 1017.4 0.0
01/11:00am 15.0 6.9 3.5 46 5.2 SSW 35 50 19 27 1017.2 1017.2 0.0
01/10:30am 16.2 7.6 2.6 40 6.1 SW 37 50 20 27 1016.8 1016.8 0.0
01/10:00am 15.5 7.5 3.9 46 5.3 SW 35 48 19 26 1016.4 1016.4 0.0
01/09:32am 13.7 5.3 3.5 50 4.6 SW 37 57 20 31 1016.0 1016.0 0.0
01/09:30am 13.7 5.3 3.5 50 4.6 SW 37 54 20 29 1016.0 1016.0 0.0
01/09:00am 13.9 6.1 5.0 55 4.1 SW 35 54 19 29 1015.4 1015.4 0.4
01/08:30am 13.7 6.4 5.6 58 3.8 SW 33 43 18 23 1014.8 1014.8 0.4
01/08:05am 12.8 6.6 6.2 64 3.1 SW 28 48 15 26 1014.2 1014.2 0.4
01/08:00am 13.0 7.3 6.6 65 3.1 SW 26 43 14 23 1014.1 1014.1 0.4
01/07:30am 12.0 6.5 5.9 66 2.9 SW 24 32 13 17 1013.5 1013.5 0.4
01/07:00am 11.6 6.5 5.9 68 2.7 SW 22 30 12 16 1012.8 1012.8 0.4
01/06:30am 11.7 5.8 6.0 68 2.7 SW 26 37 14 20 1012.0 1012.0 0.4
01/06:00am 11.3 7.1 7.4 77 1.9 SW 19 26 10 14 1011.4 1011.4 0.4
01/05:30am 10.4 7.0 7.8 84 1.3 WSW 15 20 8 11 1010.9 1010.9 0.4
01/05:00am 9.8 5.9 7.2 84 1.2 WSW 17 22 9 12 1010.2 1010.2 0.4
01/04:30am 9.0 5.7 6.6 85 1.1 W 13 17 7 9 1009.7 1009.7 0.4
01/04:00am 9.2 5.9 6.6 84 1.2 W 13 15 7 8 1009.5 1009.5 0.4
01/03:30am 9.4 6.8 6.3 81 1.4 WSW 9 11 5 6 1009.2 1009.2 0.4
01/03:00am 10.1 6.4 6.4 78 1.7 WSW 15 20 8 11 1008.8 1008.8 0.4
01/02:30am 11.1 6.7 7.6 79 1.7 SW 20 32 11 17 1008.6 1008.6 0.4
01/02:00am 12.2 7.0 9.0 81 1.6 SW 26 33 14 18 1008.2 1008.2 0.4
01/01:30am 12.5 7.5 11.1 91 0.7 SW 28 44 15 24 1007.8 1007.8 0.4
01/01:00am 12.6 7.7 11.2 91 0.7 SW 28 48 15 26 1007.7 1007.7 0.4
01/12:59am 12.6 7.7 11.2 91 0.7 SW 28 46 15 25 1007.6 1007.6 0.4
01/12:30am 13.0 9.3 11.4 90 0.8 WSW 22 33 12 18 1007.0 1007.0 0.4
01/12:00am 13.5 10.4 11.6 88 1.0 W 19 30 10 16 1006.8 1006.8 0.4
 
Date/Time
CDT
Temp
°C
App
Temp
°C
Dew
Point
Rel
Hum
%
Delta-T
°C
Wind Press
QNH
hPa
Press
MSL
hPa
Rain
since 9 am
mm
Dir
 
Spd
km/h
Gust
km/h
Spd
kts
Gust
kts
31/11:30pm 12.9 10.8 11.1 89 0.9 WNW 13 19 7 10 1006.5 1006.5 0.4
31/11:00pm 13.0 11.0 11.4 90 0.8 WNW 13 17 7 9 1006.7 1006.7 0.4
31/10:30pm 13.0 11.8 11.6 91 0.7 WNW 9 13 5 7 1006.6 1006.6 0.4
31/10:00pm 13.0 11.8 11.6 91 0.7 W 9 13 5 7 1006.3 1006.3 0.4
31/09:30pm 13.1 11.5 11.7 91 0.7 WSW 11 15 6 8 1005.6 1005.6 0.4
31/09:00pm 13.4 11.5 11.8 90 0.9 WSW 13 15 7 8 1005.4 1005.4 0.4
31/08:30pm 14.0 11.0 12.0 88 1.1 SW 19 24 10 13 1004.8 1004.8 0.4
31/08:00pm 14.4 10.4 11.7 84 1.4 SW 24 33 13 18 1005.0 1005.0 0.2
31/07:30pm 16.3 11.5 11.5 73 2.6 SW 28 39 15 21 1004.3 1004.3 0.0
31/07:00pm 16.6 12.0 12.2 75 2.4 SW 28 39 15 21 1003.7 1003.7 0.0
31/06:30pm 17.2 11.7 12.3 73 2.7 SW 33 43 18 23 1002.6 1002.6 0.0
31/06:00pm 18.2 12.9 12.6 70 3.1 SSW 32 43 17 23 1002.5 1002.5 0.0
31/05:30pm 19.3 12.8 13.0 67 3.6 SSW 39 46 21 25 1002.3 1002.3 0.0
31/05:19pm 19.3 13.8 13.5 69 3.3 SSW 35 54 19 29 1002.0 1002.0 0.0
31/05:00pm 21.2 17.0 14.6 66 3.9 SSW 30 39 16 21 1000.9 1000.9 0.0
31/04:30pm 23.2 18.5 14.2 57 5.3 S 32 43 17 23 1000.4 1000.4 0.0
31/04:00pm 27.9 22.0 9.2 31 10.3 SW 30 39 16 21 1000.1 1000.1 0.0
31/03:30pm 28.8 24.8 9.0 29 11.0 WSW 20 28 11 15 1000.0 1000.0 0.0
31/03:00pm 29.1 24.5 9.8 30 10.9 SW 24 32 13 17 1000.6 1000.6 0.0
31/02:30pm 29.6 24.8 7.5 25 12.0 WSW 22 30 12 16 1000.8 1000.8 0.0
31/02:00pm 29.4 25.0 6.7 24 12.1 WSW 19 26 10 14 1001.3 1001.3 0.0
31/01:30pm 27.9 23.3 5.5 24 11.7 W 19 26 10 14 1001.4 1001.4 0.0
31/01:00pm 27.8 22.6 5.4 24 11.6 WNW 22 30 12 16 1001.4 1001.4 0.0
31/12:30pm 28.4 22.8 3.3 20 12.6 NW 22 30 12 16 1001.8 1001.8 0.0
31/12:00pm 29.9 24.0 5.9 22 12.7 WNW 26 32 14 17 1002.3 1002.3 0.0
31/11:30am 28.6 23.9 6.1 24 11.9 NW 20 33 11 18 1002.9 1002.9 0.0
31/11:00am 25.8 23.0 10.0 37 8.7 N 15 22 8 12 1003.0 1003.0 0.0
31/10:30am 24.3 20.4 8.7 37 8.4 N 19 24 10 13 1003.4 1003.4 0.0
31/10:00am 23.8 20.0 9.8 41 7.6 N 20 30 11 16 1003.7 1003.7 0.0
31/09:30am 23.5 20.0 10.2 43 7.3 N 19 24 10 13 1004.0 1004.0 0.0
31/09:00am 22.2 19.1 11.6 51 5.9 N 19 24 10 13 1004.3 1004.3 0.0
31/08:30am 21.0 18.9 11.1 53 5.5 NNE 13 17 7 9 1004.4 1004.4 0.0
31/08:00am 20.1 18.0 11.1 56 4.9 NNE 13 20 7 11 1004.8 1004.8 0.0
31/07:30am 19.2 16.8 11.5 61 4.2 NNE 15 20 8 11 1004.9 1004.9 0.0
31/07:00am 18.3 16.7 11.6 65 3.7 NNE 11 19 6 10 1004.9 1004.9 0.0
31/06:30am 16.5 14.9 12.8 79 2.1 NNE 13 15 7 8 1005.0 1005.0 0.0
31/06:00am 15.4 14.6 12.9 85 1.4 N 9 11 5 6 1005.3 1005.3 0.0
31/05:30am 14.4 13.7 11.9 85 1.4 WNW 7 9 4 5 1005.6 1005.6 0.0
31/05:00am 14.3 13.8 12.2 87 1.1 N 6 9 3 5 1005.5 1005.5 0.0
31/04:30am 13.7 10.9 12.6 93 0.6 ENE 19 22 10 12 1005.3 1005.3 0.0
31/04:00am 10.8 10.4 9.9 94 0.5 NE 2 11 1 6 1006.4 1006.4 0.0
31/03:30am 10.4 10.2 9.2 92 0.6 CALM 0 0 0 0 1007.0 1007.0 0.0
31/03:00am 11.1 11.1 9.9 92 0.6 CALM 0 0 0 0 1007.4 1007.4 0.0
31/02:30am 11.8 12.0 10.4 91 0.7 CALM 0 0 0 0 1007.9 1007.9 0.0
31/02:00am 11.2 11.1 9.6 90 0.8 CALM 0 0 0 0 1008.3 1008.3 0.0
31/01:30am 12.1 12.3 10.5 90 0.8 CALM 0 0 0 0 1009.2 1009.2 0.0
31/01:00am 12.0 12.2 10.6 91 0.7 CALM 0 0 0 0 1010.0 1010.0 0.0
31/12:30am 11.8 12.0 10.4 91 0.7 CALM 0 0 0 0 1010.7 1010.7 0.0
31/12:00am 12.3 12.5 10.5 89 0.9 CALM 0 0 0 0 1010.9 1010.9 0.0
 
Date/Time
CDT
Temp
°C
App
Temp
°C
Dew
Point
Rel
Hum
%
Delta-T
°C
Wind Press
QNH
hPa
Press
MSL
hPa
Rain
since 9 am
mm
Dir
 
Spd
km/h
Gust
km/h
Spd
kts
Gust
kts
30/11:30pm 11.9 10.7 10.3 90 0.8 SSW 7 9 4 5 1011.3 1011.3 0.0
30/11:00pm 12.2 11.5 10.1 87 1.1 S 4 7 2 4 1011.7 1011.7 0.0
30/10:30pm 13.1 13.4 10.8 86 1.2 CALM 0 0 0 0 1011.9 1011.9 0.0
30/10:00pm 13.2 12.3 10.7 85 1.3 W 6 7 3 4 1012.4 1012.4 0.0
30/09:30pm 13.4 13.7 10.9 85 1.3 CALM 0 0 0 0 1012.4 1012.4 0.0
30/09:00pm 13.7 12.9 11.0 84 1.4 SW 6 9 3 5 1012.4 1012.4 0.0
30/08:30pm 15.2 14.7 12.0 81 1.7 NNE 6 7 3 4 1012.1 1012.1 0.0
30/08:00pm 15.8 14.7 12.0 78 2.1 NE 9 11 5 6 1012.0 1012.0 0.0
30/07:30pm 16.8 15.2 11.7 72 2.8 E 11 13 6 7 1011.9 1011.9 0.0
30/07:00pm 18.2 15.9 11.7 66 3.6 E 15 19 8 10 1012.0 1012.0 0.0
30/06:30pm 19.6 17.0 11.9 61 4.3 ENE 17 22 9 12 1012.0 1012.0 0.0
30/06:00pm 21.7 18.1 9.9 47 6.4 ENE 19 22 10 12 1011.8 1011.8 0.0
30/05:30pm 22.0 18.2 9.2 44 6.8 NE 19 24 10 13 1012.0 1012.0 0.0
30/05:00pm 22.6 19.5 9.0 42 7.3 ENE 15 20 8 11 1012.5 1012.5 0.0
30/04:30pm 22.5 18.8 9.6 44 7.0 E 19 26 10 14 1012.7 1012.7 0.0
30/04:00pm 22.3 18.9 9.1 43 7.1 ENE 17 24 9 13 1013.2 1013.2 0.0
30/03:30pm 22.4 20.0 10.2 46 6.7 NNE 13 22 7 12 1013.4 1013.4 0.0
30/03:00pm 21.2 19.0 9.4 47 6.3 N 11 20 6 11 1013.7 1013.7 0.0
30/02:30pm 21.0 17.9 10.2 50 5.8 N 17 26 9 14 1014.3 1014.3 0.0
30/02:00pm 20.4 17.7 10.2 52 5.5 N 15 24 8 13 1014.5 1014.5 0.0
30/01:30pm 20.4 17.7 10.2 52 5.5 N 15 24 8 13 1014.8 1014.8 0.0
30/01:00pm 20.1 17.0 10.2 53 5.3 N 17 24 9 13 1015.1 1015.1 0.0
30/12:30pm 19.4 16.6 9.9 54 5.1 N 15 24 8 13 1015.5 1015.5 0.0
30/12:00pm 19.6 15.9 10.0 54 5.1 ENE 20 26 11 14 1015.7 1015.7 0.0
30/11:30am 19.7 16.1 9.9 53 5.2 E 19 26 10 14 1016.1 1016.1 0.0
30/11:00am 19.1 16.8 9.0 52 5.3 NE 11 20 6 11 1016.4 1016.4 0.0
30/10:30am 17.5 15.4 8.4 55 4.7 N 9 17 5 9 1016.3 1016.3 0.0
30/10:00am 17.0 15.3 8.4 57 4.4 NW 7 15 4 8 1016.7 1016.7 0.0
30/09:30am 16.2 14.2 8.7 61 3.8 SW 9 13 5 7 1016.7 1016.7 0.0
30/09:00am 15.2 14.8 8.2 63 3.5 CALM 0 0 0 0 1016.8 1016.8 0.0
30/08:30am 14.8 14.6 9.0 68 3.0 CALM 0 0 0 0 1016.8 1016.8 0.0
30/08:00am 12.0 11.8 9.2 83 1.4 CALM 0 0 0 0 1017.0 1017.0 0.0
30/07:30am 9.7 9.5 8.9 95 0.4 CALM 0 0 0 0 1016.7 1016.7 0.0
30/07:00am 8.4 7.9 8.0 97 0.2 CALM 0 0 0 0 1016.7 1016.7 0.0
30/06:30am 7.6 7.0 7.2 97 0.2 CALM 0 0 0 0 1016.6 1016.6 0.0
30/06:00am 7.0 6.2 6.6 97 0.2 CALM 0 0 0 0 1016.3 1016.3 0.0
30/05:30am 6.2 4.5 5.8 97 0.2 W 4 7 2 4 1016.2 1016.2 0.0
30/05:00am 5.2 1.2 4.8 97 0.2 S 15 19 8 10 1016.1 1016.1 0.0
30/04:30am 7.0 6.2 6.6 97 0.2 CALM 0 0 0 0 1015.4 1015.4 0.0
30/04:00am 6.8 6.0 6.4 97 0.2 CALM 0 0 0 0 1016.5 1016.5 0.0
30/03:30am 6.2 5.2 5.8 97 0.2 CALM 0 0 0 0 1016.7 1016.7 0.0
30/03:00am 6.1 5.1 5.7 97 0.2 CALM 0 0 0 0 1016.5 1016.5 0.0
30/02:45am 5.0 3.8 4.4 96 0.3 CALM 0 0 0 0 1016.6 1016.6 0.0
30/02:30am 4.8 3.5 4.2 96 0.3 CALM 0 0 0 0 1016.4 1016.4 0.0
30/02:00am 5.2 4.0 4.6 96 0.3 CALM 0 0 0 0 1016.2 1016.2 0.0
30/01:36am 5.1 3.9 4.4 95 0.3 CALM 0 0 0 0 1016.6 1016.6 0.0
30/01:30am 5.4 4.2 4.7 95 0.3 CALM 0 0 0 0 1016.7 1016.7 0.0
30/01:29am 5.4 4.2 4.7 95 0.3 CALM 0 0 0 0 1016.7 1016.7 0.0
30/01:01am 6.0 4.9 5.1 94 0.4 CALM 0 0 0 0 1017.1 1017.1 0.0
30/01:00am 5.9 4.8 4.9 93 0.4 CALM 0 0 0 0 1017.1 1017.1 0.0
30/12:52am 6.3 5.2 5.3 93 0.4 CALM 0 0 0 0 1017.4 1017.4 0.0
30/12:32am 7.0 6.1 6.1 94 0.4 CALM 0 0 0 0 1017.3 1017.3 0.0
30/12:30am 6.9 6.0 6.0 94 0.4 CALM 0 0 0 0 1017.4 1017.4 0.0
30/12:00am 7.9 7.2 7.0 94 0.4 CALM 0 0 0 0 1017.7 1017.7 0.0
 
Date/Time
CDT
Temp
°C
App
Temp
°C
Dew
Point
Rel
Hum
%
Delta-T
°C
Wind Press
QNH
hPa
Press
MSL
hPa
Rain
since 9 am
mm
Dir
 
Spd
km/h
Gust
km/h
Spd
kts
Gust
kts
29/11:30pm 8.4 7.8 7.3 93 0.5 CALM 0 0 0 0 1017.9 1017.9 0.0
29/11:00pm 8.8 8.2 7.6 92 0.6 CALM 0 0 0 0 1018.3 1018.3 0.0
29/10:30pm 9.8 9.4 8.1 89 0.8 CALM 0 0 0 0 1018.5 1018.5 0.0
29/10:00pm 11.2 10.7 9.3 88 1.0 SW 2 6 1 3 1018.2 1018.2 0.0
29/09:30pm 11.7 10.5 9.4 86 1.2 SSW 6 7 3 4 1018.1 1018.1 0.0
29/09:00pm 12.5 10.8 9.9 84 1.3 S 9 9 5 5 1017.7 1017.7 0.0
29/08:30pm 13.6 11.9 10.0 79 1.9 S 9 11 5 6 1017.6 1017.6 0.0
29/08:00pm 14.8 12.4 10.2 74 2.4 S 13 17 7 9 1017.7 1017.7 0.0
29/07:30pm 15.6 12.5 10.4 71 2.7 S 17 24 9 13 1017.4 1017.4 0.0

Other Formats:

Comma delimited format used in spreadsheet applications
http://www.bom.gov.au/fwo/IDS60801/IDS60801.95807.axf

JavaScript Object Notation format (JSON) in row-major order
http://www.bom.gov.au/fwo/IDS60801/IDS60801.95807.json